Time;durP1;ratioP1;P1;durP2;ratioP2;P2;SDS_P1;SDS_P2;PMS_P1;PMS_P2;Temp;Humidity;BMP_temperature;BMP_pressure;BME280_temperature;BME280_humidity;BME280_pressure;Samples;Min_cycle;Max_cycle;Signal;HPM_P1;HPM_P2
2022/08/19 00:01:41;;;;;;;42.47;23.83;;;19.40;99.90;;;;;;4155263;28;20767;-75
2022/08/19 00:03:44;;;;;;;42.73;22.90;;;19.40;99.90;;;;;;4153430;28;20229;-76
2022/08/19 00:05:46;;;;;;;37.60;21.63;;;19.40;99.90;;;;;;4149409;28;20198;-75
2022/08/19 00:07:48;;;;;;;43.83;24.23;;;19.50;99.90;;;;;;4153868;28;20259;-75
2022/08/19 00:09:50;;;;;;;47.90;25.57;;;19.40;99.90;;;;;;4151432;28;20288;-76
2022/08/19 00:11:55;;;;;;;56.17;28.00;;;19.50;99.90;;;;;;4154395;28;20266;-75
2022/08/19 00:13:57;;;;;;;48.87;27.70;;;19.50;99.90;;;;;;4153326;28;20216;-75
2022/08/19 00:16:00;;;;;;;46.47;25.73;;;19.40;99.90;;;;;;4154717;28;20315;-75
2022/08/19 00:18:02;;;;;;;54.70;29.00;;;19.50;99.90;;;;;;4135847;28;20241;-75
2022/08/19 00:20:06;;;;;;;53.30;28.20;;;19.40;99.90;;;;;;4154141;28;20237;-75
2022/08/19 00:22:09;;;;;;;48.40;26.63;;;19.50;99.90;;;;;;4156329;28;20211;-75
2022/08/19 00:24:13;;;;;;;45.67;26.07;;;19.50;99.90;;;;;;4152555;28;20297;-75
2022/08/19 00:26:15;;;;;;;44.53;24.90;;;19.40;99.90;;;;;;4153750;28;20212;-75
2022/08/19 00:28:17;;;;;;;49.53;26.47;;;19.50;99.90;;;;;;4152052;28;20212;-75
2022/08/19 00:30:19;;;;;;;61.43;31.23;;;19.50;99.90;;;;;;4154325;28;20232;-75
2022/08/19 00:32:21;;;;;;;61.10;30.37;;;19.40;99.90;;;;;;4151033;28;20224;-75
2022/08/19 00:34:24;;;;;;;64.50;31.70;;;19.40;99.90;;;;;;4155323;28;20266;-75
2022/08/19 00:36:28;;;;;;;59.00;31.20;;;19.40;99.90;;;;;;4154313;28;20715;-75
2022/08/19 00:38:30;;;;;;;60.57;30.47;;;19.40;99.90;;;;;;4150597;28;20224;-76
2022/08/19 00:40:32;;;;;;;64.73;31.63;;;19.40;99.90;;;;;;4152769;28;20220;-75
2022/08/19 00:42:34;;;;;;;68.13;34.70;;;19.40;99.90;;;;;;4153937;28;20213;-75
2022/08/19 00:44:36;;;;;;;69.43;34.63;;;19.30;99.90;;;;;;4157075;28;20240;-75
2022/08/19 00:46:40;;;;;;;68.60;33.50;;;19.40;99.90;;;;;;4141532;28;20288;-75
2022/08/19 00:48:42;;;;;;;69.20;35.20;;;19.30;99.90;;;;;;4158437;28;20288;-75
2022/08/19 00:50:45;;;;;;;83.23;34.17;;;19.30;99.90;;;;;;4151150;28;20210;-76
2022/08/19 00:52:52;;;;;;;69.17;33.73;;;19.30;99.90;;;;;;4158418;28;20240;-75
2022/08/19 00:54:54;;;;;;;66.23;33.57;;;19.30;99.90;;;;;;4152669;28;20925;-76
2022/08/19 00:56:56;;;;;;;74.97;35.67;;;19.30;99.90;;;;;;4160084;28;20273;-75
2022/08/19 00:58:59;;;;;;;72.57;34.37;;;19.30;99.90;;;;;;4140741;28;20234;-76
2022/08/19 01:01:01;;;;;;;72.27;34.67;;;19.30;99.90;;;;;;4151823;28;20217;-76
2022/08/19 01:03:03;;;;;;;67.43;33.03;;;19.30;99.90;;;;;;4159748;28;20580;-76
2022/08/19 01:05:10;;;;;;;64.47;31.87;;;19.30;99.90;;;;;;4145576;28;20259;-77
2022/08/19 01:07:12;;;;;;;72.10;33.53;;;19.30;99.90;;;;;;4145640;28;20228;-76
2022/08/19 01:09:16;;;;;;;63.57;31.07;;;19.30;99.90;;;;;;4158718;28;20246;-76
2022/08/19 01:11:18;;;;;;;61.33;31.03;;;19.40;99.90;;;;;;4157686;28;20208;-76
2022/08/19 01:13:23;;;;;;;70.60;32.27;;;19.30;99.90;;;;;;4138105;28;20203;-76
2022/08/19 01:15:29;;;;;;;75.30;34.40;;;19.30;99.90;;;;;;4140307;28;20226;-76
2022/08/19 01:17:31;;;;;;;66.40;32.87;;;19.40;99.90;;;;;;4153038;28;20244;-76
2022/08/19 01:19:37;;;;;;;76.03;35.57;;;19.40;99.90;;;;;;4156657;28;20638;-77
2022/08/19 01:21:44;;;;;;;81.37;36.53;;;19.30;99.90;;;;;;4155394;28;20209;-77
2022/08/19 01:23:48;;;;;;;86.70;36.27;;;19.30;99.90;;;;;;4155940;28;20236;-77
2022/08/19 01:25:52;;;;;;;71.67;33.43;;;19.30;99.90;;;;;;4156301;28;20209;-77
2022/08/19 01:27:55;;;;;;;79.13;35.53;;;19.30;99.90;;;;;;4155838;28;20316;-77
2022/08/19 01:29:57;;;;;;;74.67;34.37;;;19.20;99.90;;;;;;4136429;28;20205;-77
2022/08/19 01:32:00;;;;;;;69.43;31.73;;;19.30;99.90;;;;;;4153521;28;20823;-77
2022/08/19 01:34:03;;;;;;;78.77;35.50;;;19.30;99.90;;;;;;4153208;28;20231;-77
2022/08/19 01:36:08;;;;;;;74.63;34.40;;;19.30;99.90;;;;;;4152703;28;20314;-76
2022/08/19 01:38:20;;;;;;;71.10;33.17;;;19.30;99.90;;;;;;4155840;28;20251;-77
2022/08/19 01:40:26;;;;;;;79.53;36.03;;;19.30;99.90;;;;;;4152912;28;20214;-76
2022/08/19 01:42:29;;;;;;;69.63;33.80;;;19.30;99.90;;;;;;4159179;28;20201;-76
2022/08/19 01:44:36;;;;;;;74.83;35.83;;;19.30;99.90;;;;;;4157476;28;20216;-77
2022/08/19 01:46:38;;;;;;;81.37;36.20;;;19.30;99.90;;;;;;4152557;28;20244;-76
2022/08/19 01:48:42;;;;;;;76.37;35.07;;;19.40;99.90;;;;;;4157153;28;20634;-77
2022/08/19 01:50:44;;;;;;;85.90;37.13;;;19.30;99.90;;;;;;4154265;28;20242;-76
2022/08/19 01:52:46;;;;;;;79.70;35.90;;;19.30;99.90;;;;;;4156218;28;20218;-76
2022/08/19 01:54:48;;;;;;;83.47;36.73;;;19.40;99.90;;;;;;4137590;28;20210;-76
2022/08/19 01:56:52;;;;;;;84.53;36.33;;;19.30;99.90;;;;;;4158222;28;20266;-77
2022/08/19 01:58:57;;;;;;;73.90;34.27;;;19.30;99.90;;;;;;4157956;28;20637;-77
2022/08/19 02:00:59;;;;;;;72.27;34.07;;;19.30;99.90;;;;;;4153770;28;20524;-77
2022/08/19 02:03:01;;;;;;;72.17;34.70;;;19.30;99.90;;;;;;4159106;28;20603;-76
2022/08/19 02:05:04;;;;;;;81.13;37.00;;;19.40;99.90;;;;;;4156840;28;20228;-76
2022/08/19 02:07:07;;;;;;;86.90;38.03;;;19.40;99.90;;;;;;4152484;28;20229;-76
2022/08/19 02:09:09;;;;;;;83.07;38.37;;;19.30;99.90;;;;;;4154242;28;20286;-76
2022/08/19 02:11:19;;;;;;;88.17;39.40;;;19.40;99.90;;;;;;4156981;28;20232;-76
2022/08/19 02:13:26;;;;;;;87.37;39.17;;;19.30;99.90;;;;;;4157946;28;20286;-77
2022/08/19 02:15:28;;;;;;;86.00;39.07;;;19.40;99.90;;;;;;4155740;28;20222;-76
2022/08/19 02:17:31;;;;;;;88.77;38.80;;;19.30;99.90;;;;;;4156557;28;20222;-76
2022/08/19 02:19:33;;;;;;;89.00;39.13;;;19.30;99.90;;;;;;4143265;28;20234;-76
2022/08/19 02:21:35;;;;;;;79.90;37.73;;;19.30;99.90;;;;;;4159399;28;20262;-77
2022/08/19 02:23:37;;;;;;;86.53;38.43;;;19.20;99.90;;;;;;4158858;28;20311;-75
2022/08/19 02:25:40;;;;;;;87.73;38.30;;;19.20;99.90;;;;;;4160807;28;20602;-76
2022/08/19 02:27:43;;;;;;;80.80;36.73;;;19.20;99.90;;;;;;4157543;28;20686;-76
2022/08/19 02:29:47;;;;;;;81.20;37.73;;;19.30;99.90;;;;;;4161407;28;20670;-76
2022/08/19 02:31:49;;;;;;;89.60;39.93;;;19.20;99.90;;;;;;4156805;28;20288;-76
2022/08/19 02:33:52;;;;;;;88.10;40.33;;;19.30;99.90;;;;;;4157691;28;20293;-76
2022/08/19 02:35:54;;;;;;;84.57;38.13;;;19.20;99.90;;;;;;4157234;28;20304;-76
2022/08/19 02:40:17;;;;;;;81.97;37.30;;;19.20;99.90;;;;;;4158909;28;20231;-76
2022/08/19 02:42:19;;;;;;;77.37;36.57;;;19.30;99.90;;;;;;4134063;28;20222;-76
2022/08/19 02:44:21;;;;;;;74.27;34.73;;;19.30;99.90;;;;;;4149781;28;20221;-76
2022/08/19 02:46:26;;;;;;;85.00;37.73;;;19.30;99.90;;;;;;4151098;28;20209;-76
2022/08/19 02:48:28;;;;;;;73.03;35.43;;;19.30;99.90;;;;;;4153914;28;20642;-76
2022/08/19 02:50:31;;;;;;;74.07;35.73;;;19.30;99.90;;;;;;4155107;28;20213;-76
2022/08/19 02:52:33;;;;;;;78.20;37.70;;;19.30;99.90;;;;;;4154255;28;20213;-76
2022/08/19 02:54:36;;;;;;;81.90;37.10;;;19.30;99.90;;;;;;4157463;28;20642;-76
2022/08/19 02:56:39;;;;;;;79.70;36.33;;;19.40;99.90;;;;;;4155483;28;20236;-75
2022/08/19 02:58:42;;;;;;;79.17;37.23;;;19.30;99.90;;;;;;4156556;28;20436;-75
2022/08/19 03:00:46;;;;;;;78.30;37.80;;;19.30;99.90;;;;;;4157617;28;20209;-75
2022/08/19 03:02:49;;;;;;;73.07;35.93;;;19.40;99.90;;;;;;4158729;28;20236;-75
2022/08/19 03:04:51;;;;;;;67.83;33.13;;;19.40;99.90;;;;;;4139155;28;20219;-76
2022/08/19 03:06:53;;;;;;;69.47;33.90;;;19.40;99.90;;;;;;4153379;28;20230;-76
2022/08/19 03:08:56;;;;;;;70.33;33.87;;;19.40;99.90;;;;;;4149083;28;20589;-75
2022/08/19 03:10:58;;;;;;;79.80;36.33;;;19.40;99.90;;;;;;4158111;28;20214;-76
2022/08/19 03:13:00;;;;;;;81.37;37.63;;;19.40;99.90;;;;;;4155879;28;20206;-76
2022/08/19 03:15:02;;;;;;;76.03;36.37;;;19.40;99.90;;;;;;4156802;28;20209;-76
2022/08/19 03:17:05;;;;;;;78.17;36.77;;;19.50;99.90;;;;;;4155669;28;20247;-76
2022/08/19 03:19:08;;;;;;;62.20;32.80;;;19.40;99.90;;;;;;4156839;28;20219;-75
2022/08/19 03:21:15;;;;;;;58.07;30.37;;;19.40;99.90;;;;;;4158821;28;20213;-76
2022/08/19 03:23:18;;;;;;;53.10;28.40;;;19.40;99.90;;;;;;4153343;28;20236;-76
2022/08/19 03:25:20;;;;;;;55.63;29.20;;;19.40;99.90;;;;;;4157718;28;20212;-76
2022/08/19 03:27:22;;;;;;;48.47;27.63;;;19.50;99.90;;;;;;4156521;28;20237;-76
2022/08/19 03:29:25;;;;;;;43.67;24.83;;;19.50;99.90;;;;;;4152840;28;20683;-76
2022/08/19 03:31:28;;;;;;;44.33;25.23;;;19.50;99.90;;;;;;4152645;28;20211;-76
2022/08/19 03:33:31;;;;;;;42.17;24.33;;;19.50;99.90;;;;;;4155201;28;20217;-76
2022/08/19 03:35:36;;;;;;;46.63;26.47;;;19.50;99.90;;;;;;4158390;28;20240;-76
2022/08/19 03:37:38;;;;;;;47.50;26.00;;;19.50;99.90;;;;;;4155133;28;20232;-75
2022/08/19 03:39:41;;;;;;;42.13;24.23;;;19.50;99.90;;;;;;4155832;28;20205;-76
2022/08/19 03:41:46;;;;;;;37.37;22.37;;;19.50;99.90;;;;;;4158810;28;20209;-76
2022/08/19 03:43:49;;;;;;;45.93;26.10;;;19.40;99.90;;;;;;4132973;28;20219;-75
2022/08/19 03:46:03;;;;;;;42.30;23.77;;;19.40;99.90;;;;;;4154522;28;20253;-75
2022/08/19 03:48:05;;;;;;;35.57;22.10;;;19.50;99.90;;;;;;4148834;28;20285;-75
2022/08/19 03:50:08;;;;;;;42.87;24.30;;;19.40;99.90;;;;;;4156140;28;20618;-76
2022/08/19 03:52:12;;;;;;;43.23;23.53;;;19.50;99.90;;;;;;4153601;28;20297;-76
2022/08/19 03:54:15;;;;;;;42.83;23.33;;;19.50;99.90;;;;;;4151175;28;20201;-75
2022/08/19 03:56:17;;;;;;;38.03;22.33;;;19.40;99.90;;;;;;4154096;28;20253;-75
2022/08/19 03:58:19;;;;;;;46.37;26.07;;;19.40;99.90;;;;;;4147562;28;20210;-76
2022/08/19 04:00:21;;;;;;;45.33;25.53;;;19.50;99.90;;;;;;4156306;28;20717;-75
2022/08/19 04:02:24;;;;;;;45.80;25.70;;;19.50;99.90;;;;;;4152536;28;20333;-75
2022/08/19 04:04:26;;;;;;;57.57;29.00;;;19.50;99.90;;;;;;4153887;28;20233;-75
2022/08/19 04:06:30;;;;;;;50.50;26.80;;;19.50;99.90;;;;;;4156339;28;20209;-75
2022/08/19 04:08:33;;;;;;;50.97;26.57;;;19.50;99.90;;;;;;4155039;28;20209;-75
2022/08/19 04:10:37;;;;;;;49.40;27.03;;;19.40;99.90;;;;;;4155015;28;20598;-75
2022/08/19 04:12:39;;;;;;;61.00;30.23;;;19.40;99.90;;;;;;4155466;28;20241;-75
2022/08/19 04:14:41;;;;;;;55.63;29.97;;;19.40;99.90;;;;;;4155145;28;20209;-75
2022/08/19 04:16:44;;;;;;;58.63;30.83;;;19.40;99.90;;;;;;4152472;28;20244;-75
2022/08/19 04:18:46;;;;;;;72.50;36.20;;;19.40;99.90;;;;;;4154216;28;20207;-75
2022/08/19 04:20:48;;;;;;;78.77;37.20;;;19.30;99.90;;;;;;4155230;28;20208;-76
2022/08/19 04:22:50;;;;;;;69.73;34.27;;;19.30;99.90;;;;;;4156628;28;20234;-77
2022/08/19 04:24:53;;;;;;;73.03;35.17;;;19.30;99.90;;;;;;4157628;28;20203;-78
2022/08/19 04:26:56;;;;;;;71.03;33.80;;;19.30;99.90;;;;;;4155832;28;20304;-77
2022/08/19 04:28:57;;;;;;;71.50;35.03;;;19.30;99.90;;;;;;4154867;28;20208;-77
2022/08/19 04:30:59;;;;;;;78.67;36.60;;;19.40;99.90;;;;;;4158500;28;20232;-77
2022/08/19 04:33:01;;;;;;;83.87;38.57;;;19.30;99.90;;;;;;4152102;28;20214;-78
2022/08/19 04:35:03;;;;;;;83.17;39.23;;;19.30;99.90;;;;;;4153833;28;20237;-77
2022/08/19 04:37:11;;;;;;;77.20;36.93;;;19.30;99.90;;;;;;4153519;28;20423;-77
2022/08/19 04:39:15;;;;;;;80.70;37.97;;;19.30;99.90;;;;;;4156766;28;20216;-78
2022/08/19 04:43:39;;;;;;;96.83;41.57;;;19.40;99.90;;;;;;4158063;28;20203;-78
2022/08/19 04:45:41;;;;;;;85.13;39.70;;;19.40;99.90;;;;;;4149281;28;20218;-76
2022/08/19 04:47:44;;;;;;;100.83;44.10;;;19.30;99.90;;;;;;4152362;28;20328;-77
2022/08/19 04:49:46;;;;;;;100.33;43.33;;;19.30;99.90;;;;;;4139927;28;20237;-78
2022/08/19 04:51:49;;;;;;;98.97;43.10;;;19.30;99.90;;;;;;4153753;28;20685;-78
2022/08/19 04:53:52;;;;;;;106.80;44.90;;;19.30;99.90;;;;;;4157001;28;20298;-78
2022/08/19 04:55:54;;;;;;;97.87;43.77;;;19.30;99.90;;;;;;4153680;28;20251;-78
2022/08/19 04:57:57;;;;;;;93.50;43.37;;;19.40;99.90;;;;;;4152577;28;20640;-77
2022/08/19 04:59:59;;;;;;;101.47;43.70;;;19.30;99.90;;;;;;4155522;28;20209;-78
2022/08/19 05:02:01;;;;;;;90.30;41.40;;;19.30;99.90;;;;;;4143501;28;20296;-79
2022/08/19 05:04:06;;;;;;;90.00;40.70;;;19.30;99.90;;;;;;4156256;28;20207;-79
2022/08/19 05:06:10;;;;;;;90.13;39.37;;;19.20;99.90;;;;;;4136970;28;20598;-79
2022/08/19 05:08:12;;;;;;;95.83;41.83;;;19.40;99.90;;;;;;4154774;28;20751;-79
2022/08/19 05:10:14;;;;;;;91.87;40.87;;;19.30;99.90;;;;;;4155785;28;20555;-79
2022/08/19 05:12:16;;;;;;;96.47;41.87;;;19.30;99.90;;;;;;4157190;28;20228;-79
2022/08/19 05:14:21;;;;;;;92.73;41.00;;;19.30;99.90;;;;;;4138927;28;20233;-79
2022/08/19 05:16:24;;;;;;;104.07;43.27;;;19.30;99.90;;;;;;4155721;28;20222;-79
2022/08/19 05:23:06;;;;;;;101.40;42.60;;;19.30;99.90;;;;;;4154685;28;20715;-79
2022/08/19 05:25:11;;;;;;;103.17;43.93;;;19.30;99.90;;;;;;4160996;28;20240;-79
2022/08/19 05:27:13;;;;;;;107.40;43.40;;;19.30;99.90;;;;;;4156476;28;20228;-79
2022/08/19 05:29:17;;;;;;;113.63;45.23;;;19.30;99.90;;;;;;4140677;28;20201;-79
2022/08/19 05:31:21;;;;;;;118.70;46.03;;;19.40;99.90;;;;;;4154205;28;20230;-78
2022/08/19 05:33:24;;;;;;;117.33;46.03;;;19.30;99.90;;;;;;4145277;28;20330;-78
2022/08/19 05:35:25;;;;;;;107.83;44.10;;;19.40;99.90;;;;;;4159558;28;20206;-78
2022/08/19 05:37:27;;;;;;;120.37;47.33;;;19.40;99.90;;;;;;4146320;28;20264;-78
2022/08/19 05:39:32;;;;;;;122.13;48.57;;;19.50;99.90;;;;;;4161183;28;20237;-78
2022/08/19 05:41:34;;;;;;;140.40;51.23;;;19.30;99.90;;;;;;4162603;28;20614;-78
2022/08/19 05:43:36;;;;;;;110.33;46.10;;;19.30;99.90;;;;;;4160756;28;20694;-77
2022/08/19 05:45:42;;;;;;;127.67;47.77;;;19.30;99.90;;;;;;4155673;28;20231;-83
2022/08/19 05:47:46;;;;;;;126.50;49.13;;;19.30;99.90;;;;;;4156284;28;20229;-79
2022/08/19 05:49:49;;;;;;;124.87;49.87;;;19.30;99.90;;;;;;4164557;28;20236;-80
2022/08/19 05:51:51;;;;;;;122.23;48.47;;;19.30;99.90;;;;;;4169389;28;20206;-79
2022/08/19 05:53:53;;;;;;;118.50;48.63;;;19.40;99.90;;;;;;4165059;28;20209;-80
2022/08/19 05:55:55;;;;;;;122.17;48.47;;;19.30;99.90;;;;;;4152910;28;20337;-80
2022/08/19 05:57:57;;;;;;;107.33;46.07;;;19.30;99.90;;;;;;4157231;28;20755;-79
2022/08/19 06:00:01;;;;;;;121.53;48.73;;;19.40;99.90;;;;;;4161079;28;20214;-79
2022/08/19 06:02:05;;;;;;;115.67;48.83;;;19.40;99.90;;;;;;4148307;28;20228;-80
2022/08/19 06:04:08;;;;;;;118.07;49.70;;;19.30;99.90;;;;;;4157744;28;20271;-79
2022/08/19 06:06:13;;;;;;;110.33;47.87;;;19.30;99.90;;;;;;4162940;28;20600;-79
2022/08/19 06:08:15;;;;;;;108.90;46.63;;;19.30;99.90;;;;;;4159497;28;20722;-79
2022/08/19 06:10:17;;;;;;;119.60;47.80;;;19.40;99.90;;;;;;4155669;28;20770;-79
2022/08/19 06:12:18;;;;;;;109.83;46.60;;;19.40;99.90;;;;;;4162706;28;20304;-78
2022/08/19 06:14:23;;;;;;;121.03;50.37;;;19.30;99.90;;;;;;4164285;28;20225;-80
2022/08/19 06:16:26;;;;;;;117.33;49.87;;;19.30;99.90;;;;;;4163049;28;20202;-79
2022/08/19 06:18:29;;;;;;;113.37;48.97;;;19.30;99.90;;;;;;4142625;28;20214;-80
2022/08/19 06:20:32;;;;;;;96.13;44.67;;;19.40;99.90;;;;;;4160065;28;20220;-80
2022/08/19 06:22:39;;;;;;;103.93;45.27;;;19.30;99.90;;;;;;4158744;28;20236;-77
2022/08/19 06:24:41;;;;;;;111.73;46.70;;;19.40;99.90;;;;;;4157227;28;20207;-76
2022/08/19 06:26:46;;;;;;;113.80;47.67;;;19.50;99.90;;;;;;4160097;28;20598;-76
2022/08/19 06:28:48;;;;;;;110.47;47.50;;;19.50;99.90;;;;;;4156664;28;20687;-76
2022/08/19 06:30:51;;;;;;;140.73;51.77;;;19.50;99.90;;;;;;4155576;28;20249;-76
2022/08/19 06:32:53;;;;;;;126.57;50.53;;;19.50;99.90;;;;;;4156154;28;20206;-77
2022/08/19 06:34:55;;;;;;;130.93;51.20;;;19.60;99.90;;;;;;4155915;28;20289;-76
2022/08/19 06:37:01;;;;;;;108.87;46.80;;;19.60;99.90;;;;;;4158070;28;20234;-76
2022/08/19 06:39:05;;;;;;;124.90;50.47;;;19.60;99.90;;;;;;4156531;28;20283;-77
2022/08/19 06:41:08;;;;;;;121.20;49.33;;;19.60;99.90;;;;;;4150786;28;21087;-77
2022/08/19 06:43:09;;;;;;;102.97;44.13;;;19.60;99.90;;;;;;4156994;28;20904;-77
2022/08/19 06:45:11;;;;;;;123.27;49.47;;;19.60;99.90;;;;;;4156036;28;20275;-77
2022/08/19 06:47:17;;;;;;;123.33;50.50;;;19.60;99.90;;;;;;4153234;28;20625;-76
2022/08/19 06:49:19;;;;;;;117.63;49.13;;;19.60;99.90;;;;;;4143032;28;20221;-76
2022/08/19 06:51:23;;;;;;;124.57;50.43;;;19.60;99.90;;;;;;4137415;28;20747;-76
2022/08/19 06:53:27;;;;;;;126.13;51.43;;;19.60;99.90;;;;;;4152324;28;20210;-76
2022/08/19 06:55:30;;;;;;;108.13;45.97;;;19.50;99.90;;;;;;4155520;28;20722;-76
2022/08/19 06:57:33;;;;;;;107.87;46.90;;;19.50;99.90;;;;;;4152909;28;20529;-76
2022/08/19 06:59:35;;;;;;;96.43;43.27;;;19.50;99.90;;;;;;4158087;28;20673;-77
2022/08/19 07:01:38;;;;;;;124.03;47.27;;;19.50;99.90;;;;;;4137676;28;20297;-77
2022/08/19 07:03:40;;;;;;;94.67;41.97;;;19.50;99.90;;;;;;4133778;28;20262;-77
2022/08/19 07:05:42;;;;;;;92.77;42.93;;;19.50;99.90;;;;;;4151836;28;20264;-77
2022/08/19 07:07:44;;;;;;;108.00;45.13;;;19.50;99.90;;;;;;4138128;28;20587;-77
2022/08/19 07:09:48;;;;;;;118.40;48.33;;;19.50;99.90;;;;;;4148277;28;20215;-76
2022/08/19 07:11:52;;;;;;;108.93;44.43;;;19.40;99.90;;;;;;4156350;28;20300;-77
2022/08/19 07:13:55;;;;;;;104.33;44.57;;;19.40;99.90;;;;;;4152443;28;20666;-77
2022/08/19 07:15:57;;;;;;;121.13;46.60;;;19.40;99.90;;;;;;4156092;28;20675;-77
2022/08/19 07:17:58;;;;;;;105.73;44.50;;;19.50;99.90;;;;;;4151971;28;20221;-77
2022/08/19 07:20:00;;;;;;;118.67;46.63;;;19.40;99.90;;;;;;4155651;28;20290;-77
2022/08/19 07:22:04;;;;;;;99.80;42.67;;;19.40;99.90;;;;;;4154869;28;20205;-77
2022/08/19 07:24:06;;;;;;;102.37;42.67;;;19.50;99.90;;;;;;4161438;28;20295;-77
2022/08/19 07:26:12;;;;;;;109.67;46.10;;;19.40;99.90;;;;;;4158324;28;20210;-77
2022/08/19 07:28:14;;;;;;;97.10;42.77;;;19.30;99.90;;;;;;4157952;28;20226;-77
2022/08/19 07:30:16;;;;;;;101.23;44.03;;;19.30;99.90;;;;;;4151277;28;20701;-77
2022/08/19 07:32:18;;;;;;;99.77;43.57;;;19.30;99.90;;;;;;4157819;28;20293;-77
2022/08/19 07:34:20;;;;;;;100.10;43.67;;;19.30;99.90;;;;;;4153178;28;20236;-77
2022/08/19 07:36:25;;;;;;;113.60;45.20;;;19.20;99.90;;;;;;4154829;28;20700;-77
2022/08/19 07:38:26;;;;;;;117.57;44.97;;;19.30;99.90;;;;;;4147293;28;20312;-77
2022/08/19 07:40:28;;;;;;;101.03;43.60;;;19.30;99.90;;;;;;4151206;28;20213;-77
2022/08/19 07:42:32;;;;;;;103.97;43.43;;;19.30;99.90;;;;;;4132448;28;20228;-77
2022/08/19 07:44:34;;;;;;;102.87;42.43;;;19.30;99.90;;;;;;4153216;28;20218;-77
2022/08/19 07:46:38;;;;;;;106.43;43.93;;;19.20;99.90;;;;;;4154974;28;20237;-77
2022/08/19 07:48:42;;;;;;;89.53;41.70;;;19.20;99.90;;;;;;4156462;28;20824;-76
2022/08/19 07:50:43;;;;;;;91.23;41.63;;;19.20;99.90;;;;;;4157150;28;20202;-77
2022/08/19 07:52:46;;;;;;;86.47;39.80;;;19.30;99.90;;;;;;4156126;28;20208;-77
2022/08/19 07:54:49;;;;;;;75.50;36.33;;;19.30;99.90;;;;;;4152060;28;20209;-77
2022/08/19 07:56:52;;;;;;;82.70;36.93;;;19.30;99.90;;;;;;4156100;28;20268;-77
2022/08/19 07:58:55;;;;;;;88.07;40.93;;;19.30;99.90;;;;;;4159431;28;20236;-77
2022/08/19 08:00:57;;;;;;;95.10;42.00;;;19.40;99.90;;;;;;4157637;28;20292;-82
2022/08/19 08:02:59;;;;;;;84.40;40.70;;;19.30;99.90;;;;;;4159286;28;20577;-77
2022/08/19 08:09:41;;;;;;;82.87;38.77;;;19.40;99.90;;;;;;4150397;28;20782;-78
2022/08/19 08:11:48;;;;;;;80.23;39.00;;;19.40;99.90;;;;;;4155757;28;20269;-76
2022/08/19 08:13:50;;;;;;;96.03;41.23;;;19.40;99.90;;;;;;4154534;28;20212;-77
2022/08/19 08:15:54;;;;;;;88.00;40.83;;;19.40;99.90;;;;;;4150333;28;20202;-77
2022/08/19 08:17:57;;;;;;;82.20;39.20;;;19.40;99.90;;;;;;4150041;28;20244;-77
2022/08/19 08:19:59;;;;;;;78.93;38.80;;;19.40;99.90;;;;;;4157705;28;20206;-77
2022/08/19 08:22:02;;;;;;;74.23;37.17;;;19.40;99.90;;;;;;4155383;28;20222;-77
2022/08/19 08:24:03;;;;;;;76.10;38.77;;;19.50;99.90;;;;;;4155251;28;20580;-76
2022/08/19 08:26:05;;;;;;;75.07;37.27;;;19.50;99.90;;;;;;4156394;28;20636;-78
2022/08/19 08:28:08;;;;;;;80.93;39.90;;;19.50;99.90;;;;;;4155859;28;20306;-77
2022/08/19 08:30:14;;;;;;;71.53;36.73;;;19.50;99.90;;;;;;4158174;28;20206;-77
2022/08/19 08:32:17;;;;;;;69.00;36.13;;;19.50;99.90;;;;;;4151041;28;20257;-77
2022/08/19 08:34:19;;;;;;;70.90;37.50;;;19.60;99.90;;;;;;4151749;28;20229;-77
2022/08/19 08:36:21;;;;;;;67.73;34.63;;;19.50;99.90;;;;;;4151386;28;20243;-77
2022/08/19 08:38:25;;;;;;;72.67;37.87;;;19.50;99.90;;;;;;4154565;28;20226;-77
2022/08/19 08:40:31;;;;;;;74.37;38.40;;;19.50;99.90;;;;;;4135899;28;20222;-77
2022/08/19 08:42:44;;;;;;;80.57;39.80;;;19.40;99.90;;;;;;4153890;28;20231;-77
2022/08/19 08:44:52;;;;;;;70.47;37.30;;;19.40;99.90;;;;;;4150560;28;20295;-76
2022/08/19 08:46:58;;;;;;;64.67;35.03;;;19.40;99.90;;;;;;4152224;28;20603;-76
2022/08/19 08:49:08;;;;;;;62.97;34.50;;;19.40;99.90;;;;;;4152231;28;20207;-76
2022/08/19 08:51:13;;;;;;;65.53;34.30;;;19.40;99.90;;;;;;4159165;28;20199;-76
2022/08/19 08:53:18;;;;;;;61.90;33.77;;;19.50;99.90;;;;;;4152961;28;20214;-76
2022/08/19 08:55:23;;;;;;;71.07;36.70;;;19.50;99.90;;;;;;4150351;28;20290;-77
2022/08/19 08:57:30;;;;;;;71.03;36.90;;;19.40;99.90;;;;;;4157159;28;20826;-76
2022/08/19 08:59:36;;;;;;;72.23;37.07;;;19.40;99.90;;;;;;4159959;28;20211;-77
2022/08/19 09:01:38;;;;;;;70.80;36.23;;;19.40;99.90;;;;;;4162251;28;20199;-77
2022/08/19 09:03:42;;;;;;;77.40;37.80;;;19.40;99.90;;;;;;4155368;28;20221;-76
2022/08/19 09:05:56;;;;;;;75.53;38.37;;;19.30;99.90;;;;;;4156988;28;20276;-77
2022/08/19 09:08:04;;;;;;;83.93;39.83;;;19.40;99.90;;;;;;4156059;28;20225;-76
2022/08/19 09:10:16;;;;;;;85.00;39.50;;;19.40;99.90;;;;;;4142119;28;20243;-77
2022/08/19 09:12:31;;;;;;;67.07;36.20;;;19.30;99.90;;;;;;4154198;28;20241;-77
2022/08/19 09:14:41;;;;;;;68.00;35.83;;;19.30;99.90;;;;;;4158000;28;20210;-76
2022/08/19 09:16:42;;;;;;;70.57;37.80;;;19.30;99.90;;;;;;4144805;28;20228;-76
2022/08/19 09:18:46;;;;;;;74.80;36.63;;;19.30;99.90;;;;;;4156528;28;20231;-76
2022/08/19 09:20:50;;;;;;;75.87;37.37;;;19.30;99.90;;;;;;4160603;28;20297;-77
2022/08/19 09:22:51;;;;;;;72.03;36.93;;;19.40;99.90;;;;;;4157997;28;20197;-76
2022/08/19 09:24:54;;;;;;;70.40;35.93;;;19.30;99.90;;;;;;4159137;28;20211;-77
2022/08/19 09:26:56;;;;;;;62.97;35.23;;;19.40;99.90;;;;;;4160977;28;20279;-77
2022/08/19 09:28:59;;;;;;;65.57;36.27;;;19.40;99.90;;;;;;4157824;28;20199;-78
2022/08/19 09:31:01;;;;;;;68.93;35.83;;;19.40;99.90;;;;;;4154315;28;20754;-77
2022/08/19 09:33:03;;;;;;;75.10;37.90;;;19.40;99.90;;;;;;4157994;28;20213;-78
2022/08/19 09:35:06;;;;;;;63.33;35.93;;;19.50;99.90;;;;;;4140523;28;20302;-77
2022/08/19 09:37:09;;;;;;;65.27;36.50;;;19.50;99.90;;;;;;4155024;28;20230;-77
2022/08/19 09:39:11;;;;;;;74.33;38.07;;;19.50;99.90;;;;;;4156146;28;20263;-77
2022/08/19 09:41:15;;;;;;;70.97;38.90;;;19.40;99.90;;;;;;4161014;28;20712;-77
2022/08/19 09:43:17;;;;;;;78.97;39.47;;;19.50;99.90;;;;;;4158651;28;20221;-77
2022/08/19 09:45:22;;;;;;;67.57;36.83;;;19.50;99.90;;;;;;4156079;28;20288;-77
2022/08/19 09:47:24;;;;;;;67.70;36.73;;;19.50;99.90;;;;;;4140079;28;20255;-77
2022/08/19 09:49:25;;;;;;;69.27;37.20;;;19.40;99.90;;;;;;4155851;28;20275;-78
2022/08/19 09:51:29;;;;;;;74.53;36.83;;;19.40;99.90;;;;;;4157985;28;20214;-77
2022/08/19 09:53:32;;;;;;;68.67;35.10;;;19.40;99.90;;;;;;4135134;28;20239;-77
2022/08/19 09:55:34;;;;;;;73.37;36.13;;;19.50;99.90;;;;;;4154496;28;20214;-77
2022/08/19 09:57:37;;;;;;;62.33;33.93;;;19.60;99.90;;;;;;4160622;28;20669;-77
2022/08/19 09:59:40;;;;;;;65.13;35.43;;;19.50;99.90;;;;;;4155329;28;20301;-76
2022/08/19 10:01:43;;;;;;;69.87;35.47;;;19.60;99.90;;;;;;4160081;28;20688;-77
2022/08/19 10:03:47;;;;;;;63.83;33.93;;;19.60;99.90;;;;;;4138311;28;20913;-77
2022/08/19 10:05:48;;;;;;;58.63;32.57;;;19.60;99.90;;;;;;4154091;28;20656;-76
2022/08/19 10:07:50;;;;;;;56.63;30.97;;;19.70;99.90;;;;;;4158053;28;20220;-77
2022/08/19 10:09:53;;;;;;;53.60;30.47;;;19.70;99.90;;;;;;4159514;28;20214;-79
2022/08/19 10:11:56;;;;;;;51.20;30.40;;;19.70;99.90;;;;;;4153989;28;20210;-77
2022/08/19 10:13:58;;;;;;;54.73;31.30;;;19.70;99.90;;;;;;4160744;28;20265;-78
2022/08/19 10:16:06;;;;;;;51.47;29.83;;;19.70;99.90;;;;;;4141517;28;20195;-77
2022/08/19 10:18:08;;;;;;;54.60;30.17;;;19.80;99.90;;;;;;4150716;28;20235;-77
2022/08/19 10:20:11;;;;;;;47.23;29.67;;;19.80;99.90;;;;;;4153365;28;20225;-76
2022/08/19 10:22:14;;;;;;;48.20;28.87;;;19.80;99.90;;;;;;4160051;28;20565;-77
2022/08/19 10:24:16;;;;;;;47.07;27.97;;;19.80;99.90;;;;;;4153942;28;20608;-78
2022/08/19 10:26:21;;;;;;;45.83;27.10;;;19.90;99.90;;;;;;4152019;28;20211;-78
2022/08/19 10:28:23;;;;;;;44.33;27.47;;;19.90;99.90;;;;;;4159887;28;20809;-76
2022/08/19 10:30:25;;;;;;;41.93;27.13;;;20.00;99.90;;;;;;4158712;28;20289;-76
2022/08/19 10:32:29;;;;;;;45.00;27.50;;;20.10;99.90;;;;;;4139376;28;20223;-77
2022/08/19 10:34:31;;;;;;;38.87;25.47;;;20.20;99.90;;;;;;4158398;28;20763;-77
2022/08/19 10:36:35;;;;;;;38.67;24.30;;;20.30;99.90;;;;;;4159602;28;20579;-76
2022/08/19 10:38:38;;;;;;;37.43;24.23;;;20.30;99.90;;;;;;4157587;28;20246;-77